sensor_id;sensor_type;location;lat;lon;timestamp;P1;durP1;ratioP1;P2;durP2;ratioP2
71836;SDS011;59686;51.716;7.016;2023-07-08T00:00:26;2.75;;;2.10;;
71836;SDS011;59686;51.716;7.016;2023-07-08T00:02:52;2.65;;;2.30;;
71836;SDS011;59686;51.716;7.016;2023-07-08T00:05:19;2.65;;;2.15;;
71836;SDS011;59686;51.716;7.016;2023-07-08T00:07:47;2.53;;;2.33;;
71836;SDS011;59686;51.716;7.016;2023-07-08T00:10:20;2.65;;;2.38;;
71836;SDS011;59686;51.716;7.016;2023-07-08T00:12:48;2.33;;;2.13;;
71836;SDS011;59686;51.716;7.016;2023-07-08T00:15:15;3.17;;;2.40;;
71836;SDS011;59686;51.716;7.016;2023-07-08T00:17:42;3.28;;;2.42;;
71836;SDS011;59686;51.716;7.016;2023-07-08T00:20:18;3.28;;;2.20;;
71836;SDS011;59686;51.716;7.016;2023-07-08T00:22:47;3.03;;;2.58;;
71836;SDS011;59686;51.716;7.016;2023-07-08T00:25:15;2.25;;;2.05;;
71836;SDS011;59686;51.716;7.016;2023-07-08T00:27:42;2.45;;;1.92;;
71836;SDS011;59686;51.716;7.016;2023-07-08T00:30:29;2.83;;;2.47;;
71836;SDS011;59686;51.716;7.016;2023-07-08T00:32:55;4.07;;;2.30;;
71836;SDS011;59686;51.716;7.016;2023-07-08T00:35:22;2.95;;;1.90;;
71836;SDS011;59686;51.716;7.016;2023-07-08T00:37:54;3.30;;;1.98;;
71836;SDS011;59686;51.716;7.016;2023-07-08T00:40:37;2.47;;;2.03;;
71836;SDS011;59686;51.716;7.016;2023-07-08T00:43:05;2.35;;;2.15;;
71836;SDS011;59686;51.716;7.016;2023-07-08T00:45:43;2.30;;;2.10;;
71836;SDS011;59686;51.716;7.016;2023-07-08T00:50:42;2.67;;;2.45;;
71836;SDS011;59686;51.716;7.016;2023-07-08T00:53:22;2.40;;;2.20;;
71836;SDS011;59686;51.716;7.016;2023-07-08T00:55:48;2.58;;;1.95;;
71836;SDS011;59686;51.716;7.016;2023-07-08T00:58:16;2.65;;;2.38;;
71836;SDS011;59686;51.716;7.016;2023-07-08T01:00:43;2.20;;;2.00;;
71836;SDS011;59686;51.716;7.016;2023-07-08T01:03:09;3.55;;;2.33;;
71836;SDS011;59686;51.716;7.016;2023-07-08T01:05:35;2.42;;;2.20;;
71836;SDS011;59686;51.716;7.016;2023-07-08T01:08:03;4.90;;;2.28;;
71836;SDS011;59686;51.716;7.016;2023-07-08T01:10:33;2.20;;;2.00;;
71836;SDS011;59686;51.716;7.016;2023-07-08T01:13:03;2.40;;;2.13;;
71836;SDS011;59686;51.716;7.016;2023-07-08T01:15:34;2.45;;;2.25;;
71836;SDS011;59686;51.716;7.016;2023-07-08T01:18:04;2.38;;;2.17;;
71836;SDS011;59686;51.716;7.016;2023-07-08T01:20:30;2.60;;;2.20;;
71836;SDS011;59686;51.716;7.016;2023-07-08T01:22:55;2.33;;;2.13;;
71836;SDS011;59686;51.716;7.016;2023-07-08T01:25:21;2.50;;;2.30;;
71836;SDS011;59686;51.716;7.016;2023-07-08T01:27:48;2.42;;;2.22;;
71836;SDS011;59686;51.716;7.016;2023-07-08T01:30:17;2.35;;;2.10;;
71836;SDS011;59686;51.716;7.016;2023-07-08T01:32:45;2.40;;;2.20;;
71836;SDS011;59686;51.716;7.016;2023-07-08T01:35:14;2.53;;;2.30;;
71836;SDS011;59686;51.716;7.016;2023-07-08T01:37:42;2.30;;;2.10;;
71836;SDS011;59686;51.716;7.016;2023-07-08T01:42:52;3.53;;;2.42;;
71836;SDS011;59686;51.716;7.016;2023-07-08T01:45:19;3.15;;;2.10;;
71836;SDS011;59686;51.716;7.016;2023-07-08T01:47:47;2.42;;;2.20;;
71836;SDS011;59686;51.716;7.016;2023-07-08T01:50:25;2.38;;;2.08;;
71836;SDS011;59686;51.716;7.016;2023-07-08T01:52:52;2.20;;;2.00;;
71836;SDS011;59686;51.716;7.016;2023-07-08T01:55:23;2.63;;;2.20;;
71836;SDS011;59686;51.716;7.016;2023-07-08T01:57:52;3.83;;;2.33;;
71836;SDS011;59686;51.716;7.016;2023-07-08T02:00:18;2.45;;;2.20;;
71836;SDS011;59686;51.716;7.016;2023-07-08T02:02:45;2.33;;;2.13;;
71836;SDS011;59686;51.716;7.016;2023-07-08T02:05:10;2.75;;;2.00;;
71836;SDS011;59686;51.716;7.016;2023-07-08T02:07:36;2.67;;;2.25;;
71836;SDS011;59686;51.716;7.016;2023-07-08T02:10:02;2.72;;;2.28;;
71836;SDS011;59686;51.716;7.016;2023-07-08T02:12:27;3.28;;;2.25;;
71836;SDS011;59686;51.716;7.016;2023-07-08T02:15:03;3.58;;;2.50;;
71836;SDS011;59686;51.716;7.016;2023-07-08T02:17:29;2.42;;;2.22;;
71836;SDS011;59686;51.716;7.016;2023-07-08T02:19:55;2.63;;;2.20;;
71836;SDS011;59686;51.716;7.016;2023-07-08T02:22:21;3.63;;;2.17;;
71836;SDS011;59686;51.716;7.016;2023-07-08T02:24:48;3.38;;;2.17;;
71836;SDS011;59686;51.716;7.016;2023-07-08T02:27:14;2.78;;;2.17;;
71836;SDS011;59686;51.716;7.016;2023-07-08T02:29:40;2.88;;;2.10;;
71836;SDS011;59686;51.716;7.016;2023-07-08T02:32:06;2.40;;;2.20;;
71836;SDS011;59686;51.716;7.016;2023-07-08T02:34:32;2.35;;;2.15;;
71836;SDS011;59686;51.716;7.016;2023-07-08T02:36:57;2.45;;;2.25;;
71836;SDS011;59686;51.716;7.016;2023-07-08T02:39:23;3.22;;;2.50;;
71836;SDS011;59686;51.716;7.016;2023-07-08T02:41:49;2.40;;;2.20;;
71836;SDS011;59686;51.716;7.016;2023-07-08T02:44:14;2.40;;;2.17;;
71836;SDS011;59686;51.716;7.016;2023-07-08T02:46:40;2.63;;;2.03;;
71836;SDS011;59686;51.716;7.016;2023-07-08T02:49:06;2.42;;;2.13;;
71836;SDS011;59686;51.716;7.016;2023-07-08T02:51:32;2.65;;;2.00;;
71836;SDS011;59686;51.716;7.016;2023-07-08T02:53:58;3.00;;;2.08;;
71836;SDS011;59686;51.716;7.016;2023-07-08T02:56:24;2.28;;;2.08;;
71836;SDS011;59686;51.716;7.016;2023-07-08T02:58:51;3.60;;;2.22;;
71836;SDS011;59686;51.716;7.016;2023-07-08T03:01:17;2.90;;;2.60;;
71836;SDS011;59686;51.716;7.016;2023-07-08T03:03:44;2.70;;;2.20;;
71836;SDS011;59686;51.716;7.016;2023-07-08T03:06:16;2.50;;;2.10;;
71836;SDS011;59686;51.716;7.016;2023-07-08T03:08:42;2.50;;;2.30;;
71836;SDS011;59686;51.716;7.016;2023-07-08T03:11:07;2.17;;;2.00;;
71836;SDS011;59686;51.716;7.016;2023-07-08T03:13:33;2.70;;;2.45;;
71836;SDS011;59686;51.716;7.016;2023-07-08T03:16:00;2.50;;;2.20;;
71836;SDS011;59686;51.716;7.016;2023-07-08T03:18:27;2.50;;;2.30;;
71836;SDS011;59686;51.716;7.016;2023-07-08T03:20:55;2.40;;;2.20;;
71836;SDS011;59686;51.716;7.016;2023-07-08T03:23:26;2.60;;;1.90;;
71836;SDS011;59686;51.716;7.016;2023-07-08T03:25:51;2.72;;;2.35;;
71836;SDS011;59686;51.716;7.016;2023-07-08T03:28:17;2.60;;;2.40;;
71836;SDS011;59686;51.716;7.016;2023-07-08T03:30:44;3.08;;;2.22;;
71836;SDS011;59686;51.716;7.016;2023-07-08T03:33:10;2.78;;;2.45;;
71836;SDS011;59686;51.716;7.016;2023-07-08T03:35:36;2.42;;;2.22;;
71836;SDS011;59686;51.716;7.016;2023-07-08T03:38:04;3.53;;;2.40;;
71836;SDS011;59686;51.716;7.016;2023-07-08T03:40:30;2.72;;;2.40;;
71836;SDS011;59686;51.716;7.016;2023-07-08T03:42:56;2.75;;;2.33;;
71836;SDS011;59686;51.716;7.016;2023-07-08T03:45:22;2.50;;;2.30;;
71836;SDS011;59686;51.716;7.016;2023-07-08T03:47:48;2.83;;;2.20;;
71836;SDS011;59686;51.716;7.016;2023-07-08T03:50:18;3.17;;;2.13;;
71836;SDS011;59686;51.716;7.016;2023-07-08T03:52:49;2.85;;;2.20;;
71836;SDS011;59686;51.716;7.016;2023-07-08T03:55:16;3.03;;;2.28;;
71836;SDS011;59686;51.716;7.016;2023-07-08T03:57:42;2.20;;;2.00;;
71836;SDS011;59686;51.716;7.016;2023-07-08T04:00:08;2.53;;;2.33;;
71836;SDS011;59686;51.716;7.016;2023-07-08T04:02:35;2.35;;;2.15;;
71836;SDS011;59686;51.716;7.016;2023-07-08T04:05:01;2.38;;;2.13;;
71836;SDS011;59686;51.716;7.016;2023-07-08T04:07:28;2.53;;;2.33;;
71836;SDS011;59686;51.716;7.016;2023-07-08T04:09:54;2.42;;;2.22;;
71836;SDS011;59686;51.716;7.016;2023-07-08T04:12:20;3.03;;;2.20;;
71836;SDS011;59686;51.716;7.016;2023-07-08T04:14:46;2.60;;;2.40;;
71836;SDS011;59686;51.716;7.016;2023-07-08T04:17:11;2.28;;;2.08;;
71836;SDS011;59686;51.716;7.016;2023-07-08T04:19:38;3.28;;;2.33;;
71836;SDS011;59686;51.716;7.016;2023-07-08T04:22:09;3.22;;;2.40;;
71836;SDS011;59686;51.716;7.016;2023-07-08T04:24:36;2.58;;;2.20;;
71836;SDS011;59686;51.716;7.016;2023-07-08T04:27:02;2.30;;;2.10;;
71836;SDS011;59686;51.716;7.016;2023-07-08T04:29:28;2.50;;;2.22;;
71836;SDS011;59686;51.716;7.016;2023-07-08T04:31:54;2.40;;;2.20;;
71836;SDS011;59686;51.716;7.016;2023-07-08T04:34:20;2.35;;;2.15;;
71836;SDS011;59686;51.716;7.016;2023-07-08T04:36:46;2.53;;;2.03;;
71836;SDS011;59686;51.716;7.016;2023-07-08T04:39:12;2.45;;;2.25;;
71836;SDS011;59686;51.716;7.016;2023-07-08T04:41:41;2.40;;;2.20;;
71836;SDS011;59686;51.716;7.016;2023-07-08T04:44:12;2.28;;;2.08;;
71836;SDS011;59686;51.716;7.016;2023-07-08T04:49:11;3.00;;;2.28;;
71836;SDS011;59686;51.716;7.016;2023-07-08T04:51:38;2.33;;;2.10;;
71836;SDS011;59686;51.716;7.016;2023-07-08T04:54:05;2.67;;;2.40;;
71836;SDS011;59686;51.716;7.016;2023-07-08T04:59:08;2.35;;;2.15;;
71836;SDS011;59686;51.716;7.016;2023-07-08T05:01:35;2.40;;;2.20;;
71836;SDS011;59686;51.716;7.016;2023-07-08T05:04:01;2.20;;;2.00;;
71836;SDS011;59686;51.716;7.016;2023-07-08T05:06:30;3.00;;;2.40;;
71836;SDS011;59686;51.716;7.016;2023-07-08T05:08:57;2.25;;;2.05;;
71836;SDS011;59686;51.716;7.016;2023-07-08T05:11:24;3.47;;;2.42;;
71836;SDS011;59686;51.716;7.016;2023-07-08T05:13:50;3.15;;;2.40;;
71836;SDS011;59686;51.716;7.016;2023-07-08T05:16:15;3.30;;;2.20;;
71836;SDS011;59686;51.716;7.016;2023-07-08T05:18:41;2.40;;;2.20;;
71836;SDS011;59686;51.716;7.016;2023-07-08T05:21:07;6.95;;;3.03;;
71836;SDS011;59686;51.716;7.016;2023-07-08T05:23:33;4.05;;;2.97;;
71836;SDS011;59686;51.716;7.016;2023-07-08T05:26:00;3.75;;;2.70;;
71836;SDS011;59686;51.716;7.016;2023-07-08T05:28:28;4.65;;;2.90;;
71836;SDS011;59686;51.716;7.016;2023-07-08T05:30:54;3.58;;;2.80;;
71836;SDS011;59686;51.716;7.016;2023-07-08T05:33:21;4.20;;;2.58;;
71836;SDS011;59686;51.716;7.016;2023-07-08T05:35:47;4.28;;;2.65;;
71836;SDS011;59686;51.716;7.016;2023-07-08T05:38:13;3.95;;;2.60;;
71836;SDS011;59686;51.716;7.016;2023-07-08T05:40:39;2.38;;;2.17;;
71836;SDS011;59686;51.716;7.016;2023-07-08T05:43:04;3.05;;;2.50;;
71836;SDS011;59686;51.716;7.016;2023-07-08T05:45:30;3.10;;;2.53;;
71836;SDS011;59686;51.716;7.016;2023-07-08T05:47:55;3.45;;;2.60;;
71836;SDS011;59686;51.716;7.016;2023-07-08T05:50:21;2.80;;;2.47;;
71836;SDS011;59686;51.716;7.016;2023-07-08T05:52:47;2.58;;;2.28;;
71836;SDS011;59686;51.716;7.016;2023-07-08T05:55:13;3.00;;;2.40;;
71836;SDS011;59686;51.716;7.016;2023-07-08T05:57:38;2.80;;;2.35;;
71836;SDS011;59686;51.716;7.016;2023-07-08T06:00:04;3.42;;;2.50;;
71836;SDS011;59686;51.716;7.016;2023-07-08T06:02:31;2.53;;;2.33;;
71836;SDS011;59686;51.716;7.016;2023-07-08T06:04:56;3.42;;;2.40;;
71836;SDS011;59686;51.716;7.016;2023-07-08T06:07:22;2.50;;;2.30;;
71836;SDS011;59686;51.716;7.016;2023-07-08T06:09:48;2.80;;;2.45;;
71836;SDS011;59686;51.716;7.016;2023-07-08T06:12:13;2.88;;;2.58;;
71836;SDS011;59686;51.716;7.016;2023-07-08T06:14:39;2.65;;;2.45;;
71836;SDS011;59686;51.716;7.016;2023-07-08T06:17:05;3.85;;;2.60;;
71836;SDS011;59686;51.716;7.016;2023-07-08T06:19:31;2.67;;;2.45;;
71836;SDS011;59686;51.716;7.016;2023-07-08T06:21:57;2.72;;;2.50;;
71836;SDS011;59686;51.716;7.016;2023-07-08T06:24:23;4.03;;;2.55;;
71836;SDS011;59686;51.716;7.016;2023-07-08T06:26:48;2.47;;;2.28;;
71836;SDS011;59686;51.716;7.016;2023-07-08T06:29:14;2.45;;;2.25;;
71836;SDS011;59686;51.716;7.016;2023-07-08T06:31:41;3.17;;;2.40;;
71836;SDS011;59686;51.716;7.016;2023-07-08T06:34:07;2.60;;;2.30;;
71836;SDS011;59686;51.716;7.016;2023-07-08T06:36:32;3.45;;;2.10;;
71836;SDS011;59686;51.716;7.016;2023-07-08T06:38:58;2.67;;;2.47;;
71836;SDS011;59686;51.716;7.016;2023-07-08T06:41:24;3.63;;;2.50;;
71836;SDS011;59686;51.716;7.016;2023-07-08T06:43:49;2.72;;;2.53;;
71836;SDS011;59686;51.716;7.016;2023-07-08T06:46:15;3.22;;;2.30;;
71836;SDS011;59686;51.716;7.016;2023-07-08T06:48:42;4.05;;;2.42;;
71836;SDS011;59686;51.716;7.016;2023-07-08T06:51:07;3.05;;;2.28;;
71836;SDS011;59686;51.716;7.016;2023-07-08T06:53:33;2.75;;;2.38;;
71836;SDS011;59686;51.716;7.016;2023-07-08T06:55:59;2.78;;;2.58;;
71836;SDS011;59686;51.716;7.016;2023-07-08T06:58:25;2.60;;;2.40;;
71836;SDS011;59686;51.716;7.016;2023-07-08T07:00:51;3.13;;;2.42;;
71836;SDS011;59686;51.716;7.016;2023-07-08T07:03:16;3.67;;;2.33;;
71836;SDS011;59686;51.716;7.016;2023-07-08T07:05:42;2.45;;;2.15;;
71836;SDS011;59686;51.716;7.016;2023-07-08T07:08:08;2.90;;;2.60;;
71836;SDS011;59686;51.716;7.016;2023-07-08T07:10:34;2.75;;;2.55;;
71836;SDS011;59686;51.716;7.016;2023-07-08T07:13:00;2.83;;;2.47;;
71836;SDS011;59686;51.716;7.016;2023-07-08T07:15:26;2.97;;;2.30;;
71836;SDS011;59686;51.716;7.016;2023-07-08T07:17:52;3.25;;;2.40;;
71836;SDS011;59686;51.716;7.016;2023-07-08T07:20:18;3.33;;;2.40;;
71836;SDS011;59686;51.716;7.016;2023-07-08T07:22:43;3.15;;;2.17;;
71836;SDS011;59686;51.716;7.016;2023-07-08T07:25:09;3.22;;;2.50;;
71836;SDS011;59686;51.716;7.016;2023-07-08T07:27:35;2.88;;;2.58;;
71836;SDS011;59686;51.716;7.016;2023-07-08T07:30:00;2.63;;;2.40;;
71836;SDS011;59686;51.716;7.016;2023-07-08T07:32:26;3.53;;;2.30;;
71836;SDS011;59686;51.716;7.016;2023-07-08T07:34:53;3.63;;;2.33;;
71836;SDS011;59686;51.716;7.016;2023-07-08T07:37:20;3.20;;;2.38;;
71836;SDS011;59686;51.716;7.016;2023-07-08T07:39:47;3.08;;;2.75;;
71836;SDS011;59686;51.716;7.016;2023-07-08T07:42:13;3.30;;;2.38;;
71836;SDS011;59686;51.716;7.016;2023-07-08T07:44:40;3.40;;;2.83;;
71836;SDS011;59686;51.716;7.016;2023-07-08T07:47:06;3.25;;;2.78;;
71836;SDS011;59686;51.716;7.016;2023-07-08T07:49:32;3.58;;;2.42;;
71836;SDS011;59686;51.716;7.016;2023-07-08T07:51:58;3.58;;;3.03;;
71836;SDS011;59686;51.716;7.016;2023-07-08T07:54:24;3.58;;;2.72;;
71836;SDS011;59686;51.716;7.016;2023-07-08T07:56:50;3.33;;;2.70;;
71836;SDS011;59686;51.716;7.016;2023-07-08T07:59:16;3.00;;;2.70;;
71836;SDS011;59686;51.716;7.016;2023-07-08T08:01:41;4.57;;;2.75;;
71836;SDS011;59686;51.716;7.016;2023-07-08T08:04:07;3.35;;;3.05;;
71836;SDS011;59686;51.716;7.016;2023-07-08T08:06:34;3.42;;;2.70;;
71836;SDS011;59686;51.716;7.016;2023-07-08T08:08:59;3.72;;;2.85;;
71836;SDS011;59686;51.716;7.016;2023-07-08T08:11:25;3.90;;;3.03;;
71836;SDS011;59686;51.716;7.016;2023-07-08T08:13:51;3.38;;;2.75;;
71836;SDS011;59686;51.716;7.016;2023-07-08T08:16:18;3.25;;;2.58;;
71836;SDS011;59686;51.716;7.016;2023-07-08T08:18:44;3.25;;;2.95;;
71836;SDS011;59686;51.716;7.016;2023-07-08T08:21:09;4.03;;;3.03;;
71836;SDS011;59686;51.716;7.016;2023-07-08T08:23:35;3.60;;;2.97;;
71836;SDS011;59686;51.716;7.016;2023-07-08T08:26:01;3.20;;;2.90;;
71836;SDS011;59686;51.716;7.016;2023-07-08T08:28:26;4.03;;;3.33;;
71836;SDS011;59686;51.716;7.016;2023-07-08T08:30:52;3.10;;;2.80;;
71836;SDS011;59686;51.716;7.016;2023-07-08T08:33:18;3.55;;;3.08;;
71836;SDS011;59686;51.716;7.016;2023-07-08T08:35:44;3.22;;;2.92;;
71836;SDS011;59686;51.716;7.016;2023-07-08T08:38:10;4.25;;;2.88;;
71836;SDS011;59686;51.716;7.016;2023-07-08T08:40:36;4.90;;;3.13;;
71836;SDS011;59686;51.716;7.016;2023-07-08T08:43:05;3.25;;;2.95;;
71836;SDS011;59686;51.716;7.016;2023-07-08T08:45:39;3.42;;;3.00;;
71836;SDS011;59686;51.716;7.016;2023-07-08T08:48:21;5.10;;;3.33;;
71836;SDS011;59686;51.716;7.016;2023-07-08T08:50:50;4.07;;;3.13;;
71836;SDS011;59686;51.716;7.016;2023-07-08T08:53:20;3.92;;;3.35;;
71836;SDS011;59686;51.716;7.016;2023-07-08T08:55:52;3.30;;;3.00;;
71836;SDS011;59686;51.716;7.016;2023-07-08T09:01:02;3.85;;;3.50;;
71836;SDS011;59686;51.716;7.016;2023-07-08T09:06:18;4.00;;;3.58;;
71836;SDS011;59686;51.716;7.016;2023-07-08T09:08:45;3.90;;;3.53;;
71836;SDS011;59686;51.716;7.016;2023-07-08T09:13:46;4.90;;;3.65;;
71836;SDS011;59686;51.716;7.016;2023-07-08T09:16:20;6.97;;;4.15;;
71836;SDS011;59686;51.716;7.016;2023-07-08T09:24:35;4.50;;;3.65;;
71836;SDS011;59686;51.716;7.016;2023-07-08T09:27:16;4.93;;;3.67;;
71836;SDS011;59686;51.716;7.016;2023-07-08T09:29:42;4.03;;;3.17;;
71836;SDS011;59686;51.716;7.016;2023-07-08T09:32:13;4.57;;;3.40;;
71836;SDS011;59686;51.716;7.016;2023-07-08T09:35:25;3.90;;;3.58;;
71836;SDS011;59686;51.716;7.016;2023-07-08T09:37:33;5.35;;;4.07;;
71836;SDS011;59686;51.716;7.016;2023-07-08T09:40:04;5.95;;;3.83;;
71836;SDS011;59686;51.716;7.016;2023-07-08T09:42:54;4.57;;;4.07;;
71836;SDS011;59686;51.716;7.016;2023-07-08T09:45:46;5.72;;;4.20;;
71836;SDS011;59686;51.716;7.016;2023-07-08T09:48:21;5.28;;;4.25;;
71836;SDS011;59686;51.716;7.016;2023-07-08T09:50:51;5.20;;;4.15;;
71836;SDS011;59686;51.716;7.016;2023-07-08T09:53:18;5.07;;;4.22;;
71836;SDS011;59686;51.716;7.016;2023-07-08T09:55:45;6.15;;;4.30;;
71836;SDS011;59686;51.716;7.016;2023-07-08T09:58:53;4.38;;;3.92;;
71836;SDS011;59686;51.716;7.016;2023-07-08T10:01:08;5.88;;;4.57;;
71836;SDS011;59686;51.716;7.016;2023-07-08T10:03:36;4.93;;;4.00;;
71836;SDS011;59686;51.716;7.016;2023-07-08T10:06:03;8.13;;;4.63;;
71836;SDS011;59686;51.716;7.016;2023-07-08T10:08:42;5.43;;;4.43;;
71836;SDS011;59686;51.716;7.016;2023-07-08T10:14:04;5.97;;;4.88;;
71836;SDS011;59686;51.716;7.016;2023-07-08T10:16:34;5.70;;;4.70;;
71836;SDS011;59686;51.716;7.016;2023-07-08T10:19:00;5.60;;;4.40;;
71836;SDS011;59686;51.716;7.016;2023-07-08T10:27:08;6.13;;;4.63;;
71836;SDS011;59686;51.716;7.016;2023-07-08T10:29:56;6.50;;;4.90;;
71836;SDS011;59686;51.716;7.016;2023-07-08T10:32:43;6.53;;;4.60;;
71836;SDS011;59686;51.716;7.016;2023-07-08T10:35:34;6.40;;;4.75;;
71836;SDS011;59686;51.716;7.016;2023-07-08T10:40:49;5.53;;;4.47;;
71836;SDS011;59686;51.716;7.016;2023-07-08T10:46:18;5.22;;;4.57;;
71836;SDS011;59686;51.716;7.016;2023-07-08T10:55:07;8.07;;;5.22;;
71836;SDS011;59686;51.716;7.016;2023-07-08T11:06:52;5.80;;;4.90;;
71836;SDS011;59686;51.716;7.016;2023-07-08T11:09:34;7.68;;;5.43;;
71836;SDS011;59686;51.716;7.016;2023-07-08T11:12:13;5.80;;;5.03;;
71836;SDS011;59686;51.716;7.016;2023-07-08T11:15:13;7.68;;;5.00;;
71836;SDS011;59686;51.716;7.016;2023-07-08T11:17:58;8.02;;;5.32;;
71836;SDS011;59686;51.716;7.016;2023-07-08T11:20:47;9.93;;;5.80;;
71836;SDS011;59686;51.716;7.016;2023-07-08T11:23:26;8.50;;;5.93;;
71836;SDS011;59686;51.716;7.016;2023-07-08T11:28:49;7.90;;;5.82;;
71836;SDS011;59686;51.716;7.016;2023-07-08T11:31:18;7.60;;;5.50;;
71836;SDS011;59686;51.716;7.016;2023-07-08T11:33:44;9.68;;;6.18;;
71836;SDS011;59686;51.716;7.016;2023-07-08T11:36:11;8.48;;;5.85;;
71836;SDS011;59686;51.716;7.016;2023-07-08T11:38:47;8.35;;;5.50;;
71836;SDS011;59686;51.716;7.016;2023-07-08T11:41:15;9.60;;;5.65;;
71836;SDS011;59686;51.716;7.016;2023-07-08T11:43:54;7.25;;;5.68;;
71836;SDS011;59686;51.716;7.016;2023-07-08T11:46:24;7.57;;;5.43;;
71836;SDS011;59686;51.716;7.016;2023-07-08T11:48:53;12.32;;;6.22;;
71836;SDS011;59686;51.716;7.016;2023-07-08T11:51:28;18.80;;;6.18;;
71836;SDS011;59686;51.716;7.016;2023-07-08T11:53:58;16.80;;;6.57;;
71836;SDS011;59686;51.716;7.016;2023-07-08T11:56:26;10.27;;;5.95;;
71836;SDS011;59686;51.716;7.016;2023-07-08T11:58:57;9.25;;;6.40;;
71836;SDS011;59686;51.716;7.016;2023-07-08T12:01:30;8.32;;;6.20;;
71836;SDS011;59686;51.716;7.016;2023-07-08T12:09:12;9.38;;;5.68;;
71836;SDS011;59686;51.716;7.016;2023-07-08T12:12:02;7.57;;;6.03;;
71836;SDS011;59686;51.716;7.016;2023-07-08T12:14:31;8.38;;;5.35;;
71836;SDS011;59686;51.716;7.016;2023-07-08T12:16:57;7.38;;;5.35;;
71836;SDS011;59686;51.716;7.016;2023-07-08T12:19:23;8.25;;;5.88;;
71836;SDS011;59686;51.716;7.016;2023-07-08T12:21:53;6.70;;;5.18;;
71836;SDS011;59686;51.716;7.016;2023-07-08T12:24:19;8.73;;;5.68;;
71836;SDS011;59686;51.716;7.016;2023-07-08T12:26:51;10.05;;;5.57;;
71836;SDS011;59686;51.716;7.016;2023-07-08T12:29:17;7.07;;;5.60;;
71836;SDS011;59686;51.716;7.016;2023-07-08T12:31:43;8.63;;;6.18;;
71836;SDS011;59686;51.716;7.016;2023-07-08T12:34:13;9.98;;;6.00;;
71836;SDS011;59686;51.716;7.016;2023-07-08T12:36:42;7.25;;;5.47;;
71836;SDS011;59686;51.716;7.016;2023-07-08T12:39:10;6.53;;;5.40;;
71836;SDS011;59686;51.716;7.016;2023-07-08T12:41:40;6.55;;;5.25;;
71836;SDS011;59686;51.716;7.016;2023-07-08T12:44:40;8.30;;;5.63;;
71836;SDS011;59686;51.716;7.016;2023-07-08T12:47:02;8.88;;;5.32;;
71836;SDS011;59686;51.716;7.016;2023-07-08T12:49:28;7.95;;;5.60;;
71836;SDS011;59686;51.716;7.016;2023-07-08T12:51:55;7.72;;;5.20;;
71836;SDS011;59686;51.716;7.016;2023-07-08T12:54:21;6.40;;;4.60;;
71836;SDS011;59686;51.716;7.016;2023-07-08T12:56:47;7.43;;;5.15;;
71836;SDS011;59686;51.716;7.016;2023-07-08T12:59:14;6.97;;;4.65;;
71836;SDS011;59686;51.716;7.016;2023-07-08T13:01:43;10.85;;;5.25;;
71836;SDS011;59686;51.716;7.016;2023-07-08T13:04:11;6.82;;;4.80;;
71836;SDS011;59686;51.716;7.016;2023-07-08T13:06:38;6.18;;;4.75;;
71836;SDS011;59686;51.716;7.016;2023-07-08T13:11:59;8.23;;;5.05;;
71836;SDS011;59686;51.716;7.016;2023-07-08T13:14:38;7.22;;;5.15;;
71836;SDS011;59686;51.716;7.016;2023-07-08T13:17:08;8.57;;;4.57;;
71836;SDS011;59686;51.716;7.016;2023-07-08T13:19:39;6.13;;;4.88;;
71836;SDS011;59686;51.716;7.016;2023-07-08T13:22:08;6.78;;;4.88;;
71836;SDS011;59686;51.716;7.016;2023-07-08T13:24:37;8.38;;;4.60;;
71836;SDS011;59686;51.716;7.016;2023-07-08T13:27:12;8.40;;;5.07;;
71836;SDS011;59686;51.716;7.016;2023-07-08T13:29:45;6.13;;;4.60;;
71836;SDS011;59686;51.716;7.016;2023-07-08T13:32:11;8.52;;;4.80;;
71836;SDS011;59686;51.716;7.016;2023-07-08T13:34:36;8.90;;;4.90;;
71836;SDS011;59686;51.716;7.016;2023-07-08T13:37:04;6.80;;;4.88;;
71836;SDS011;59686;51.716;7.016;2023-07-08T13:39:36;5.78;;;4.50;;
71836;SDS011;59686;51.716;7.016;2023-07-08T13:42:02;7.60;;;4.70;;
71836;SDS011;59686;51.716;7.016;2023-07-08T13:44:28;6.13;;;4.80;;
71836;SDS011;59686;51.716;7.016;2023-07-08T13:46:55;7.60;;;4.65;;
71836;SDS011;59686;51.716;7.016;2023-07-08T13:49:28;6.93;;;4.95;;
71836;SDS011;59686;51.716;7.016;2023-07-08T13:54:38;5.70;;;4.72;;
71836;SDS011;59686;51.716;7.016;2023-07-08T13:57:11;10.52;;;5.00;;
71836;SDS011;59686;51.716;7.016;2023-07-08T13:59:40;5.20;;;4.70;;
71836;SDS011;59686;51.716;7.016;2023-07-08T14:02:14;5.57;;;4.45;;
71836;SDS011;59686;51.716;7.016;2023-07-08T14:04:46;7.70;;;5.07;;
71836;SDS011;59686;51.716;7.016;2023-07-08T14:07:15;6.30;;;4.78;;
71836;SDS011;59686;51.716;7.016;2023-07-08T14:09:42;5.95;;;4.65;;
71836;SDS011;59686;51.716;7.016;2023-07-08T14:12:09;5.28;;;4.65;;
71836;SDS011;59686;51.716;7.016;2023-07-08T14:14:34;6.05;;;4.53;;
71836;SDS011;59686;51.716;7.016;2023-07-08T14:17:00;7.75;;;4.28;;
71836;SDS011;59686;51.716;7.016;2023-07-08T14:19:27;7.00;;;4.90;;
71836;SDS011;59686;51.716;7.016;2023-07-08T14:21:56;8.57;;;5.03;;
71836;SDS011;59686;51.716;7.016;2023-07-08T14:24:23;7.63;;;4.82;;
71836;SDS011;59686;51.716;7.016;2023-07-08T14:26:49;7.43;;;4.72;;
71836;SDS011;59686;51.716;7.016;2023-07-08T14:29:15;5.30;;;4.20;;
71836;SDS011;59686;51.716;7.016;2023-07-08T14:31:43;6.22;;;4.80;;
71836;SDS011;59686;51.716;7.016;2023-07-08T14:34:09;7.68;;;4.93;;
71836;SDS011;59686;51.716;7.016;2023-07-08T14:36:37;7.50;;;4.38;;
71836;SDS011;59686;51.716;7.016;2023-07-08T14:39:11;5.68;;;4.68;;
71836;SDS011;59686;51.716;7.016;2023-07-08T14:41:38;5.53;;;4.55;;
71836;SDS011;59686;51.716;7.016;2023-07-08T14:46:50;7.75;;;4.80;;
71836;SDS011;59686;51.716;7.016;2023-07-08T14:49:17;6.45;;;4.63;;
71836;SDS011;59686;51.716;7.016;2023-07-08T14:51:44;6.78;;;4.70;;
71836;SDS011;59686;51.716;7.016;2023-07-08T14:54:10;4.93;;;4.30;;
71836;SDS011;59686;51.716;7.016;2023-07-08T14:56:37;8.30;;;5.18;;
71836;SDS011;59686;51.716;7.016;2023-07-08T14:59:03;5.30;;;4.80;;
71836;SDS011;59686;51.716;7.016;2023-07-08T15:01:29;5.65;;;4.90;;
71836;SDS011;59686;51.716;7.016;2023-07-08T15:03:56;9.40;;;5.75;;
71836;SDS011;59686;51.716;7.016;2023-07-08T15:06:22;7.45;;;5.07;;
71836;SDS011;59686;51.716;7.016;2023-07-08T15:08:49;6.70;;;4.90;;
71836;SDS011;59686;51.716;7.016;2023-07-08T15:11:14;7.90;;;4.90;;
71836;SDS011;59686;51.716;7.016;2023-07-08T15:13:41;5.50;;;4.68;;
71836;SDS011;59686;51.716;7.016;2023-07-08T15:16:13;7.78;;;5.10;;
71836;SDS011;59686;51.716;7.016;2023-07-08T15:18:41;7.72;;;4.60;;
71836;SDS011;59686;51.716;7.016;2023-07-08T15:21:16;5.88;;;4.55;;
71836;SDS011;59686;51.716;7.016;2023-07-08T15:23:42;6.53;;;4.60;;
71836;SDS011;59686;51.716;7.016;2023-07-08T15:26:11;6.13;;;4.35;;
71836;SDS011;59686;51.716;7.016;2023-07-08T15:31:13;5.20;;;4.47;;
71836;SDS011;59686;51.716;7.016;2023-07-08T15:33:40;8.02;;;4.47;;
71836;SDS011;59686;51.716;7.016;2023-07-08T15:36:08;7.28;;;4.60;;
71836;SDS011;59686;51.716;7.016;2023-07-08T15:38:40;7.72;;;4.60;;
71836;SDS011;59686;51.716;7.016;2023-07-08T15:41:18;6.82;;;4.47;;
71836;SDS011;59686;51.716;7.016;2023-07-08T15:43:46;6.32;;;4.55;;
71836;SDS011;59686;51.716;7.016;2023-07-08T15:46:13;9.65;;;4.75;;
71836;SDS011;59686;51.716;7.016;2023-07-08T15:48:39;6.25;;;4.47;;
71836;SDS011;59686;51.716;7.016;2023-07-08T15:51:20;7.05;;;4.53;;
71836;SDS011;59686;51.716;7.016;2023-07-08T15:53:46;8.20;;;4.65;;
71836;SDS011;59686;51.716;7.016;2023-07-08T15:56:12;6.25;;;4.50;;
71836;SDS011;59686;51.716;7.016;2023-07-08T15:58:43;6.22;;;4.45;;
71836;SDS011;59686;51.716;7.016;2023-07-08T16:01:17;7.70;;;4.85;;
71836;SDS011;59686;51.716;7.016;2023-07-08T16:03:45;6.43;;;4.47;;
71836;SDS011;59686;51.716;7.016;2023-07-08T16:06:12;5.28;;;4.35;;
71836;SDS011;59686;51.716;7.016;2023-07-08T16:08:38;7.68;;;4.50;;